sensor_id;sensor_type;location;lat;lon;timestamp;temperature;humidity
54429;DHT22;40337;52.978;6.310;2023-06-10T00:00:39;17.00;99.90
54429;DHT22;40337;52.978;6.310;2023-06-10T00:03:07;17.00;99.90
54429;DHT22;40337;52.978;6.310;2023-06-10T00:05:34;17.00;99.90
54429;DHT22;40337;52.978;6.310;2023-06-10T00:08:00;17.00;99.90
54429;DHT22;40337;52.978;6.310;2023-06-10T00:10:27;17.00;99.90
54429;DHT22;40337;52.978;6.310;2023-06-10T00:12:52;17.00;99.90
54429;DHT22;40337;52.978;6.310;2023-06-10T00:15:18;17.00;99.90
54429;DHT22;40337;52.978;6.310;2023-06-10T00:17:44;16.90;99.90
54429;DHT22;40337;52.978;6.310;2023-06-10T00:20:10;16.90;99.90
54429;DHT22;40337;52.978;6.310;2023-06-10T00:22:38;16.90;99.90
54429;DHT22;40337;52.978;6.310;2023-06-10T00:25:05;16.80;99.90
54429;DHT22;40337;52.978;6.310;2023-06-10T00:27:31;16.80;99.90
54429;DHT22;40337;52.978;6.310;2023-06-10T00:30:04;16.80;99.90
54429;DHT22;40337;52.978;6.310;2023-06-10T00:32:32;16.80;99.90
54429;DHT22;40337;52.978;6.310;2023-06-10T00:34:58;16.70;99.90
54429;DHT22;40337;52.978;6.310;2023-06-10T00:37:24;16.60;99.90
54429;DHT22;40337;52.978;6.310;2023-06-10T00:39:49;16.50;99.90
54429;DHT22;40337;52.978;6.310;2023-06-10T00:42:15;16.50;99.90
54429;DHT22;40337;52.978;6.310;2023-06-10T00:44:40;16.50;99.90
54429;DHT22;40337;52.978;6.310;2023-06-10T00:47:07;16.40;99.90
54429;DHT22;40337;52.978;6.310;2023-06-10T00:49:33;16.40;99.90
54429;DHT22;40337;52.978;6.310;2023-06-10T00:51:59;16.40;99.90
54429;DHT22;40337;52.978;6.310;2023-06-10T00:54:25;16.30;99.90
54429;DHT22;40337;52.978;6.310;2023-06-10T00:56:51;16.30;99.90
54429;DHT22;40337;52.978;6.310;2023-06-10T00:59:17;16.30;99.90
54429;DHT22;40337;52.978;6.310;2023-06-10T01:01:45;16.30;99.90
54429;DHT22;40337;52.978;6.310;2023-06-10T01:04:12;16.30;99.90
54429;DHT22;40337;52.978;6.310;2023-06-10T01:09:24;16.20;99.90
54429;DHT22;40337;52.978;6.310;2023-06-10T01:14:36;16.20;99.90
54429;DHT22;40337;52.978;6.310;2023-06-10T01:17:02;16.10;99.90
54429;DHT22;40337;52.978;6.310;2023-06-10T01:19:28;16.10;99.90
54429;DHT22;40337;52.978;6.310;2023-06-10T01:21:56;16.10;99.90
54429;DHT22;40337;52.978;6.310;2023-06-10T01:24:26;16.10;99.90
54429;DHT22;40337;52.978;6.310;2023-06-10T01:26:53;16.00;99.90
54429;DHT22;40337;52.978;6.310;2023-06-10T01:29:45;16.00;99.90
54429;DHT22;40337;52.978;6.310;2023-06-10T01:32:32;15.90;99.90
54429;DHT22;40337;52.978;6.310;2023-06-10T01:34:59;16.00;99.90
54429;DHT22;40337;52.978;6.310;2023-06-10T01:37:26;16.00;99.90
54429;DHT22;40337;52.978;6.310;2023-06-10T01:39:55;16.00;99.90
54429;DHT22;40337;52.978;6.310;2023-06-10T01:42:23;15.80;99.90
54429;DHT22;40337;52.978;6.310;2023-06-10T01:44:49;15.80;99.90
54429;DHT22;40337;52.978;6.310;2023-06-10T01:47:14;15.80;99.90
54429;DHT22;40337;52.978;6.310;2023-06-10T01:49:40;15.70;99.90
54429;DHT22;40337;52.978;6.310;2023-06-10T01:52:06;15.70;99.90
54429;DHT22;40337;52.978;6.310;2023-06-10T01:54:32;15.70;99.90
54429;DHT22;40337;52.978;6.310;2023-06-10T01:57:00;15.70;99.90
54429;DHT22;40337;52.978;6.310;2023-06-10T01:59:26;15.70;99.90
54429;DHT22;40337;52.978;6.310;2023-06-10T02:01:51;15.70;99.90
54429;DHT22;40337;52.978;6.310;2023-06-10T02:04:17;15.70;99.90
54429;DHT22;40337;52.978;6.310;2023-06-10T02:06:42;15.60;99.90
54429;DHT22;40337;52.978;6.310;2023-06-10T02:09:08;15.60;99.90
54429;DHT22;40337;52.978;6.310;2023-06-10T02:11:34;15.60;99.90
54429;DHT22;40337;52.978;6.310;2023-06-10T02:13:59;15.50;99.90
54429;DHT22;40337;52.978;6.310;2023-06-10T02:16:25;15.50;99.90
54429;DHT22;40337;52.978;6.310;2023-06-10T02:18:52;15.60;99.90
54429;DHT22;40337;52.978;6.310;2023-06-10T02:21:17;15.50;99.90
54429;DHT22;40337;52.978;6.310;2023-06-10T02:23:43;15.50;99.90
54429;DHT22;40337;52.978;6.310;2023-06-10T02:26:08;15.50;99.90
54429;DHT22;40337;52.978;6.310;2023-06-10T02:28:34;15.40;99.90
54429;DHT22;40337;52.978;6.310;2023-06-10T02:31:03;15.40;99.90
54429;DHT22;40337;52.978;6.310;2023-06-10T02:33:28;15.30;99.90
54429;DHT22;40337;52.978;6.310;2023-06-10T02:35:55;15.30;99.90
54429;DHT22;40337;52.978;6.310;2023-06-10T02:38:21;15.20;99.90
54429;DHT22;40337;52.978;6.310;2023-06-10T02:40:46;15.20;99.90
54429;DHT22;40337;52.978;6.310;2023-06-10T02:43:12;15.20;99.90
54429;DHT22;40337;52.978;6.310;2023-06-10T02:45:37;15.10;99.90
54429;DHT22;40337;52.978;6.310;2023-06-10T02:48:03;15.10;99.90
54429;DHT22;40337;52.978;6.310;2023-06-10T02:50:28;15.10;99.90
54429;DHT22;40337;52.978;6.310;2023-06-10T02:52:54;15.00;99.90
54429;DHT22;40337;52.978;6.310;2023-06-10T02:55:20;15.00;99.90
54429;DHT22;40337;52.978;6.310;2023-06-10T02:57:45;15.00;99.90
54429;DHT22;40337;52.978;6.310;2023-06-10T03:00:11;15.00;99.90
54429;DHT22;40337;52.978;6.310;2023-06-10T03:02:39;15.00;99.90
54429;DHT22;40337;52.978;6.310;2023-06-10T03:05:06;15.00;99.90
54429;DHT22;40337;52.978;6.310;2023-06-10T03:07:35;14.90;99.90
54429;DHT22;40337;52.978;6.310;2023-06-10T03:10:01;14.90;99.90
54429;DHT22;40337;52.978;6.310;2023-06-10T03:12:27;14.90;99.90
54429;DHT22;40337;52.978;6.310;2023-06-10T03:14:52;14.90;99.90
54429;DHT22;40337;52.978;6.310;2023-06-10T03:17:18;14.80;99.90
54429;DHT22;40337;52.978;6.310;2023-06-10T03:19:43;14.80;99.90
54429;DHT22;40337;52.978;6.310;2023-06-10T03:22:10;14.80;99.90
54429;DHT22;40337;52.978;6.310;2023-06-10T03:24:36;14.80;99.90
54429;DHT22;40337;52.978;6.310;2023-06-10T03:27:09;14.70;99.90
54429;DHT22;40337;52.978;6.310;2023-06-10T03:29:35;14.70;99.90
54429;DHT22;40337;52.978;6.310;2023-06-10T03:32:01;14.70;99.90
54429;DHT22;40337;52.978;6.310;2023-06-10T03:34:27;14.70;99.90
54429;DHT22;40337;52.978;6.310;2023-06-10T03:36:52;14.70;99.90
54429;DHT22;40337;52.978;6.310;2023-06-10T03:39:18;14.70;99.90
54429;DHT22;40337;52.978;6.310;2023-06-10T03:41:43;14.60;99.90
54429;DHT22;40337;52.978;6.310;2023-06-10T03:44:09;14.60;99.90
54429;DHT22;40337;52.978;6.310;2023-06-10T03:46:34;14.70;99.90
54429;DHT22;40337;52.978;6.310;2023-06-10T03:49:00;14.50;99.90
54429;DHT22;40337;52.978;6.310;2023-06-10T03:51:26;14.70;99.90
54429;DHT22;40337;52.978;6.310;2023-06-10T03:53:52;14.60;99.90
54429;DHT22;40337;52.978;6.310;2023-06-10T03:56:18;14.60;99.90
54429;DHT22;40337;52.978;6.310;2023-06-10T03:58:43;14.60;99.90
54429;DHT22;40337;52.978;6.310;2023-06-10T04:01:10;14.60;99.90
54429;DHT22;40337;52.978;6.310;2023-06-10T04:03:36;14.60;99.90
54429;DHT22;40337;52.978;6.310;2023-06-10T04:06:01;14.60;99.90
54429;DHT22;40337;52.978;6.310;2023-06-10T04:08:28;14.60;99.90
54429;DHT22;40337;52.978;6.310;2023-06-10T04:10:53;14.70;99.90
54429;DHT22;40337;52.978;6.310;2023-06-10T04:13:19;14.70;99.90
54429;DHT22;40337;52.978;6.310;2023-06-10T04:15:45;14.70;99.90
54429;DHT22;40337;52.978;6.310;2023-06-10T04:18:10;14.70;99.90
54429;DHT22;40337;52.978;6.310;2023-06-10T04:20:36;14.70;99.90
54429;DHT22;40337;52.978;6.310;2023-06-10T04:23:02;14.70;99.90
54429;DHT22;40337;52.978;6.310;2023-06-10T04:25:27;14.70;99.90
54429;DHT22;40337;52.978;6.310;2023-06-10T04:27:54;14.70;99.90
54429;DHT22;40337;52.978;6.310;2023-06-10T04:30:19;14.80;99.90
54429;DHT22;40337;52.978;6.310;2023-06-10T04:32:45;14.80;99.90
54429;DHT22;40337;52.978;6.310;2023-06-10T04:35:13;14.80;99.90
54429;DHT22;40337;52.978;6.310;2023-06-10T04:37:39;14.90;99.90
54429;DHT22;40337;52.978;6.310;2023-06-10T04:40:06;14.90;99.90
54429;DHT22;40337;52.978;6.310;2023-06-10T04:42:32;14.90;99.90
54429;DHT22;40337;52.978;6.310;2023-06-10T04:44:57;15.00;99.90
54429;DHT22;40337;52.978;6.310;2023-06-10T04:47:23;15.00;99.90
54429;DHT22;40337;52.978;6.310;2023-06-10T04:49:49;15.00;99.90
54429;DHT22;40337;52.978;6.310;2023-06-10T04:52:14;15.00;99.90
54429;DHT22;40337;52.978;6.310;2023-06-10T04:54:40;15.10;99.90
54429;DHT22;40337;52.978;6.310;2023-06-10T04:57:06;15.10;99.90
54429;DHT22;40337;52.978;6.310;2023-06-10T04:59:33;15.10;99.90
54429;DHT22;40337;52.978;6.310;2023-06-10T05:01:58;15.20;99.90
54429;DHT22;40337;52.978;6.310;2023-06-10T05:04:25;15.20;99.90
54429;DHT22;40337;52.978;6.310;2023-06-10T05:06:51;15.20;99.90
54429;DHT22;40337;52.978;6.310;2023-06-10T05:09:16;15.20;99.90
54429;DHT22;40337;52.978;6.310;2023-06-10T05:11:42;15.30;99.90
54429;DHT22;40337;52.978;6.310;2023-06-10T05:14:08;15.30;99.90
54429;DHT22;40337;52.978;6.310;2023-06-10T05:16:33;15.30;99.90
54429;DHT22;40337;52.978;6.310;2023-06-10T05:18:59;15.30;99.90
54429;DHT22;40337;52.978;6.310;2023-06-10T05:21:24;15.40;99.90
54429;DHT22;40337;52.978;6.310;2023-06-10T05:23:50;15.50;99.90
54429;DHT22;40337;52.978;6.310;2023-06-10T05:26:15;15.50;99.90
54429;DHT22;40337;52.978;6.310;2023-06-10T05:28:42;15.50;99.90
54429;DHT22;40337;52.978;6.310;2023-06-10T05:31:08;15.60;99.90
54429;DHT22;40337;52.978;6.310;2023-06-10T05:33:33;15.70;99.90
54429;DHT22;40337;52.978;6.310;2023-06-10T05:35:59;15.70;99.90
54429;DHT22;40337;52.978;6.310;2023-06-10T05:38:25;15.70;99.90
54429;DHT22;40337;52.978;6.310;2023-06-10T05:40:50;15.70;99.90
54429;DHT22;40337;52.978;6.310;2023-06-10T05:43:16;15.80;99.90
54429;DHT22;40337;52.978;6.310;2023-06-10T05:45:42;15.80;99.90
54429;DHT22;40337;52.978;6.310;2023-06-10T05:48:07;15.90;99.90
54429;DHT22;40337;52.978;6.310;2023-06-10T05:50:34;15.90;99.90
54429;DHT22;40337;52.978;6.310;2023-06-10T05:53:03;15.90;99.90
54429;DHT22;40337;52.978;6.310;2023-06-10T05:55:29;16.00;99.90
54429;DHT22;40337;52.978;6.310;2023-06-10T05:58:01;16.00;99.90
54429;DHT22;40337;52.978;6.310;2023-06-10T06:00:27;16.10;99.90
54429;DHT22;40337;52.978;6.310;2023-06-10T06:02:52;16.20;99.90
54429;DHT22;40337;52.978;6.310;2023-06-10T06:05:19;16.50;99.90
54429;DHT22;40337;52.978;6.310;2023-06-10T06:07:45;16.90;99.90
54429;DHT22;40337;52.978;6.310;2023-06-10T06:10:10;17.30;99.90
54429;DHT22;40337;52.978;6.310;2023-06-10T06:12:36;17.70;99.90
54429;DHT22;40337;52.978;6.310;2023-06-10T06:15:02;18.10;99.90
54429;DHT22;40337;52.978;6.310;2023-06-10T06:17:28;18.50;99.90
54429;DHT22;40337;52.978;6.310;2023-06-10T06:19:54;18.80;99.90
54429;DHT22;40337;52.978;6.310;2023-06-10T06:22:19;19.10;99.90
54429;DHT22;40337;52.978;6.310;2023-06-10T06:24:47;19.30;99.90
54429;DHT22;40337;52.978;6.310;2023-06-10T06:27:13;19.60;99.90
54429;DHT22;40337;52.978;6.310;2023-06-10T06:29:39;19.90;99.90
54429;DHT22;40337;52.978;6.310;2023-06-10T06:32:05;20.10;99.90
54429;DHT22;40337;52.978;6.310;2023-06-10T06:34:31;20.40;99.90
54429;DHT22;40337;52.978;6.310;2023-06-10T06:36:57;20.60;99.90
54429;DHT22;40337;52.978;6.310;2023-06-10T06:39:22;20.70;99.90
54429;DHT22;40337;52.978;6.310;2023-06-10T06:41:48;20.80;99.90
54429;DHT22;40337;52.978;6.310;2023-06-10T06:44:14;20.90;99.90
54429;DHT22;40337;52.978;6.310;2023-06-10T06:46:39;21.00;99.90
54429;DHT22;40337;52.978;6.310;2023-06-10T06:49:05;21.20;99.90
54429;DHT22;40337;52.978;6.310;2023-06-10T06:51:30;21.30;99.90
54429;DHT22;40337;52.978;6.310;2023-06-10T06:53:56;21.50;99.90
54429;DHT22;40337;52.978;6.310;2023-06-10T06:56:24;21.60;99.90
54429;DHT22;40337;52.978;6.310;2023-06-10T06:58:50;21.70;99.90
54429;DHT22;40337;52.978;6.310;2023-06-10T07:01:15;21.80;99.90
54429;DHT22;40337;52.978;6.310;2023-06-10T07:03:41;22.00;99.90
54429;DHT22;40337;52.978;6.310;2023-06-10T07:06:07;22.00;99.90
54429;DHT22;40337;52.978;6.310;2023-06-10T07:08:32;22.20;99.90
54429;DHT22;40337;52.978;6.310;2023-06-10T07:10:58;22.20;99.90
54429;DHT22;40337;52.978;6.310;2023-06-10T07:13:23;22.40;99.90
54429;DHT22;40337;52.978;6.310;2023-06-10T07:15:49;22.50;99.90
54429;DHT22;40337;52.978;6.310;2023-06-10T07:18:15;22.60;99.90
54429;DHT22;40337;52.978;6.310;2023-06-10T07:20:41;22.80;99.90
54429;DHT22;40337;52.978;6.310;2023-06-10T07:23:07;22.80;99.90
54429;DHT22;40337;52.978;6.310;2023-06-10T07:25:32;23.00;99.90
54429;DHT22;40337;52.978;6.310;2023-06-10T07:27:58;23.10;99.50
54429;DHT22;40337;52.978;6.310;2023-06-10T07:30:23;23.40;99.20
54429;DHT22;40337;52.978;6.310;2023-06-10T07:32:50;23.60;98.80
54429;DHT22;40337;52.978;6.310;2023-06-10T07:35:16;23.50;98.20
54429;DHT22;40337;52.978;6.310;2023-06-10T07:37:42;23.60;98.20
54429;DHT22;40337;52.978;6.310;2023-06-10T07:40:08;23.70;98.20
54429;DHT22;40337;52.978;6.310;2023-06-10T07:42:36;23.90;97.80
54429;DHT22;40337;52.978;6.310;2023-06-10T07:45:03;23.90;97.30
54429;DHT22;40337;52.978;6.310;2023-06-10T07:47:29;24.00;97.40
54429;DHT22;40337;52.978;6.310;2023-06-10T07:49:55;24.20;97.50
54429;DHT22;40337;52.978;6.310;2023-06-10T07:52:20;24.30;96.70
54429;DHT22;40337;52.978;6.310;2023-06-10T07:54:46;24.50;96.60
54429;DHT22;40337;52.978;6.310;2023-06-10T07:57:12;24.60;95.80
54429;DHT22;40337;52.978;6.310;2023-06-10T07:59:38;24.60;95.30
54429;DHT22;40337;52.978;6.310;2023-06-10T08:02:04;24.80;95.50
54429;DHT22;40337;52.978;6.310;2023-06-10T08:04:30;25.00;94.80
54429;DHT22;40337;52.978;6.310;2023-06-10T08:06:56;25.10;94.50
54429;DHT22;40337;52.978;6.310;2023-06-10T08:09:22;25.20;94.30
54429;DHT22;40337;52.978;6.310;2023-06-10T08:11:48;25.50;94.20
54429;DHT22;40337;52.978;6.310;2023-06-10T08:14:14;25.50;93.40
54429;DHT22;40337;52.978;6.310;2023-06-10T08:16:40;25.60;93.80
54429;DHT22;40337;52.978;6.310;2023-06-10T08:19:06;25.70;93.20
54429;DHT22;40337;52.978;6.310;2023-06-10T08:21:34;25.80;92.70
54429;DHT22;40337;52.978;6.310;2023-06-10T08:24:01;26.00;93.20
54429;DHT22;40337;52.978;6.310;2023-06-10T08:26:27;26.10;91.40
54429;DHT22;40337;52.978;6.310;2023-06-10T08:28:52;26.10;90.70
54429;DHT22;40337;52.978;6.310;2023-06-10T08:31:19;26.30;90.40
54429;DHT22;40337;52.978;6.310;2023-06-10T08:33:45;26.40;90.40
54429;DHT22;40337;52.978;6.310;2023-06-10T08:36:10;26.50;89.20
54429;DHT22;40337;52.978;6.310;2023-06-10T08:38:36;26.60;89.00
54429;DHT22;40337;52.978;6.310;2023-06-10T08:41:05;26.60;86.60
54429;DHT22;40337;52.978;6.310;2023-06-10T08:43:37;26.80;85.20
54429;DHT22;40337;52.978;6.310;2023-06-10T08:46:07;26.90;83.50
54429;DHT22;40337;52.978;6.310;2023-06-10T08:48:35;27.00;83.40
54429;DHT22;40337;52.978;6.310;2023-06-10T08:51:04;27.20;83.30
54429;DHT22;40337;52.978;6.310;2023-06-10T08:53:32;27.30;85.00
54429;DHT22;40337;52.978;6.310;2023-06-10T08:56:00;27.50;85.90
54429;DHT22;40337;52.978;6.310;2023-06-10T08:58:28;27.70;86.50
54429;DHT22;40337;52.978;6.310;2023-06-10T09:00:54;27.90;84.30
54429;DHT22;40337;52.978;6.310;2023-06-10T09:03:21;28.00;82.50
54429;DHT22;40337;52.978;6.310;2023-06-10T09:05:48;28.20;80.60
54429;DHT22;40337;52.978;6.310;2023-06-10T09:08:15;28.40;80.10
54429;DHT22;40337;52.978;6.310;2023-06-10T09:10:41;28.40;79.70
54429;DHT22;40337;52.978;6.310;2023-06-10T09:13:06;28.50;79.90
54429;DHT22;40337;52.978;6.310;2023-06-10T09:15:32;28.80;79.50
54429;DHT22;40337;52.978;6.310;2023-06-10T09:17:58;28.90;79.10
54429;DHT22;40337;52.978;6.310;2023-06-10T09:20:25;29.00;78.00
54429;DHT22;40337;52.978;6.310;2023-06-10T09:22:51;29.10;77.60
54429;DHT22;40337;52.978;6.310;2023-06-10T09:25:16;29.20;75.90
54429;DHT22;40337;52.978;6.310;2023-06-10T09:27:52;29.20;75.70
54429;DHT22;40337;52.978;6.310;2023-06-10T09:30:30;29.20;72.60
54429;DHT22;40337;52.978;6.310;2023-06-10T09:32:58;29.30;73.30
54429;DHT22;40337;52.978;6.310;2023-06-10T09:35:24;29.30;72.80
54429;DHT22;40337;52.978;6.310;2023-06-10T09:37:52;29.50;71.70
54429;DHT22;40337;52.978;6.310;2023-06-10T09:40:18;29.80;73.10
54429;DHT22;40337;52.978;6.310;2023-06-10T09:42:43;30.10;71.80
54429;DHT22;40337;52.978;6.310;2023-06-10T09:45:09;30.20;72.20
54429;DHT22;40337;52.978;6.310;2023-06-10T09:47:35;30.20;69.50
54429;DHT22;40337;52.978;6.310;2023-06-10T09:50:00;30.20;68.50
54429;DHT22;40337;52.978;6.310;2023-06-10T09:52:28;30.30;67.40
54429;DHT22;40337;52.978;6.310;2023-06-10T09:55:00;30.50;69.60
54429;DHT22;40337;52.978;6.310;2023-06-10T09:57:26;30.60;68.20
54429;DHT22;40337;52.978;6.310;2023-06-10T09:59:55;30.60;67.30
54429;DHT22;40337;52.978;6.310;2023-06-10T10:02:21;30.80;66.80
54429;DHT22;40337;52.978;6.310;2023-06-10T10:04:47;30.90;65.90
54429;DHT22;40337;52.978;6.310;2023-06-10T10:07:14;30.90;65.90
54429;DHT22;40337;52.978;6.310;2023-06-10T10:09:41;31.00;63.30
54429;DHT22;40337;52.978;6.310;2023-06-10T10:12:11;31.10;62.60
54429;DHT22;40337;52.978;6.310;2023-06-10T10:14:38;31.20;63.10
54429;DHT22;40337;52.978;6.310;2023-06-10T10:17:10;31.30;62.10
54429;DHT22;40337;52.978;6.310;2023-06-10T10:19:45;31.30;63.80
54429;DHT22;40337;52.978;6.310;2023-06-10T10:22:19;31.40;63.60
54429;DHT22;40337;52.978;6.310;2023-06-10T10:24:55;31.60;63.40
54429;DHT22;40337;52.978;6.310;2023-06-10T10:27:35;31.70;61.60
54429;DHT22;40337;52.978;6.310;2023-06-10T10:30:02;31.60;61.60
54429;DHT22;40337;52.978;6.310;2023-06-10T10:33:00;31.80;60.80
54429;DHT22;40337;52.978;6.310;2023-06-10T10:35:31;31.80;59.90
54429;DHT22;40337;52.978;6.310;2023-06-10T10:37:58;31.80;58.50
54429;DHT22;40337;52.978;6.310;2023-06-10T10:40:25;31.80;59.50
54429;DHT22;40337;52.978;6.310;2023-06-10T10:42:52;31.90;59.00
54429;DHT22;40337;52.978;6.310;2023-06-10T10:45:19;31.90;58.70
54429;DHT22;40337;52.978;6.310;2023-06-10T10:47:52;32.00;58.30
54429;DHT22;40337;52.978;6.310;2023-06-10T10:50:19;32.00;59.70
54429;DHT22;40337;52.978;6.310;2023-06-10T10:52:52;32.20;60.30
54429;DHT22;40337;52.978;6.310;2023-06-10T10:55:19;32.10;57.50
54429;DHT22;40337;52.978;6.310;2023-06-10T10:57:54;32.20;59.70
54429;DHT22;40337;52.978;6.310;2023-06-10T11:00:35;32.50;59.50
54429;DHT22;40337;52.978;6.310;2023-06-10T11:03:08;32.50;59.30
54429;DHT22;40337;52.978;6.310;2023-06-10T11:05:39;32.50;57.40
54429;DHT22;40337;52.978;6.310;2023-06-10T11:08:07;32.40;55.00
54429;DHT22;40337;52.978;6.310;2023-06-10T11:10:35;32.50;55.70
54429;DHT22;40337;52.978;6.310;2023-06-10T11:13:06;32.50;55.40
54429;DHT22;40337;52.978;6.310;2023-06-10T11:15:33;32.60;55.50
54429;DHT22;40337;52.978;6.310;2023-06-10T11:18:07;32.80;55.30
54429;DHT22;40337;52.978;6.310;2023-06-10T11:26:14;33.00;55.90
54429;DHT22;40337;52.978;6.310;2023-06-10T11:28:41;33.00;53.60
54429;DHT22;40337;52.978;6.310;2023-06-10T11:31:08;33.00;53.00
54429;DHT22;40337;52.978;6.310;2023-06-10T11:33:33;32.80;51.00
54429;DHT22;40337;52.978;6.310;2023-06-10T11:36:07;32.70;52.00
54429;DHT22;40337;52.978;6.310;2023-06-10T11:38:32;32.70;53.20
54429;DHT22;40337;52.978;6.310;2023-06-10T11:40:58;32.90;54.00
54429;DHT22;40337;52.978;6.310;2023-06-10T11:43:24;32.90;53.50
54429;DHT22;40337;52.978;6.310;2023-06-10T11:45:54;32.90;53.30
54429;DHT22;40337;52.978;6.310;2023-06-10T11:48:21;33.00;53.30
54429;DHT22;40337;52.978;6.310;2023-06-10T11:50:46;33.00;52.00
54429;DHT22;40337;52.978;6.310;2023-06-10T11:53:12;32.80;52.00
54429;DHT22;40337;52.978;6.310;2023-06-10T11:58:15;33.00;50.50
54429;DHT22;40337;52.978;6.310;2023-06-10T12:00:45;33.00;52.10
54429;DHT22;40337;52.978;6.310;2023-06-10T12:03:12;33.00;53.20
54429;DHT22;40337;52.978;6.310;2023-06-10T12:05:37;32.80;51.00
54429;DHT22;40337;52.978;6.310;2023-06-10T12:08:10;32.90;52.10
54429;DHT22;40337;52.978;6.310;2023-06-10T12:10:42;33.00;50.30
54429;DHT22;40337;52.978;6.310;2023-06-10T12:13:09;33.20;51.00
54429;DHT22;40337;52.978;6.310;2023-06-10T12:15:35;33.10;51.00
54429;DHT22;40337;52.978;6.310;2023-06-10T12:18:01;33.20;53.00
54429;DHT22;40337;52.978;6.310;2023-06-10T12:20:29;33.10;52.50
54429;DHT22;40337;52.978;6.310;2023-06-10T12:22:55;33.30;52.50
54429;DHT22;40337;52.978;6.310;2023-06-10T12:25:28;33.20;50.70
54429;DHT22;40337;52.978;6.310;2023-06-10T12:27:57;33.20;52.30
54429;DHT22;40337;52.978;6.310;2023-06-10T12:30:25;33.20;52.70
54429;DHT22;40337;52.978;6.310;2023-06-10T12:32:52;33.20;51.90
54429;DHT22;40337;52.978;6.310;2023-06-10T12:35:20;33.10;52.00
54429;DHT22;40337;52.978;6.310;2023-06-10T12:37:57;33.10;51.60
54429;DHT22;40337;52.978;6.310;2023-06-10T12:40:30;33.20;50.40
54429;DHT22;40337;52.978;6.310;2023-06-10T12:43:00;33.30;50.00
54429;DHT22;40337;52.978;6.310;2023-06-10T12:45:33;33.20;50.10
54429;DHT22;40337;52.978;6.310;2023-06-10T12:48:06;33.00;52.30
54429;DHT22;40337;52.978;6.310;2023-06-10T12:50:38;33.00;53.00
54429;DHT22;40337;52.978;6.310;2023-06-10T12:53:04;33.00;52.70
54429;DHT22;40337;52.978;6.310;2023-06-10T12:55:31;33.00;52.40
54429;DHT22;40337;52.978;6.310;2023-06-10T12:57:58;33.10;52.80
54429;DHT22;40337;52.978;6.310;2023-06-10T13:00:24;33.00;51.10
54429;DHT22;40337;52.978;6.310;2023-06-10T13:02:59;33.10;51.80
54429;DHT22;40337;52.978;6.310;2023-06-10T13:05:26;33.30;53.30
54429;DHT22;40337;52.978;6.310;2023-06-10T13:07:52;33.30;51.60
54429;DHT22;40337;52.978;6.310;2023-06-10T13:10:17;33.10;51.40
54429;DHT22;40337;52.978;6.310;2023-06-10T13:12:44;33.00;51.00
54429;DHT22;40337;52.978;6.310;2023-06-10T13:15:10;33.20;52.30
54429;DHT22;40337;52.978;6.310;2023-06-10T13:17:36;33.20;52.50
54429;DHT22;40337;52.978;6.310;2023-06-10T13:20:06;33.40;53.50
54429;DHT22;40337;52.978;6.310;2023-06-10T13:22:33;33.40;53.70
54429;DHT22;40337;52.978;6.310;2023-06-10T13:25:00;33.40;52.70
54429;DHT22;40337;52.978;6.310;2023-06-10T13:27:26;33.20;52.60
54429;DHT22;40337;52.978;6.310;2023-06-10T13:29:52;33.20;52.10
54429;DHT22;40337;52.978;6.310;2023-06-10T13:32:18;33.30;52.30
54429;DHT22;40337;52.978;6.310;2023-06-10T13:34:44;33.20;52.60
54429;DHT22;40337;52.978;6.310;2023-06-10T13:37:09;33.30;53.70
54429;DHT22;40337;52.978;6.310;2023-06-10T13:39:35;33.30;53.00
54429;DHT22;40337;52.978;6.310;2023-06-10T13:42:00;33.20;52.40
54429;DHT22;40337;52.978;6.310;2023-06-10T13:44:26;32.90;51.20
54429;DHT22;40337;52.978;6.310;2023-06-10T13:46:51;32.80;51.80
54429;DHT22;40337;52.978;6.310;2023-06-10T13:49:17;32.80;54.10
54429;DHT22;40337;52.978;6.310;2023-06-10T13:51:42;32.90;54.70
54429;DHT22;40337;52.978;6.310;2023-06-10T13:54:08;32.90;54.60
54429;DHT22;40337;52.978;6.310;2023-06-10T13:56:39;32.60;54.50
54429;DHT22;40337;52.978;6.310;2023-06-10T13:59:05;32.70;54.70
54429;DHT22;40337;52.978;6.310;2023-06-10T14:01:30;32.70;54.90
54429;DHT22;40337;52.978;6.310;2023-06-10T14:03:56;32.70;55.50
54429;DHT22;40337;52.978;6.310;2023-06-10T14:06:21;32.80;53.90
54429;DHT22;40337;52.978;6.310;2023-06-10T14:08:47;32.60;54.60
54429;DHT22;40337;52.978;6.310;2023-06-10T14:11:13;32.50;54.70
54429;DHT22;40337;52.978;6.310;2023-06-10T14:13:39;32.40;53.70
54429;DHT22;40337;52.978;6.310;2023-06-10T14:16:05;32.30;53.00
54429;DHT22;40337;52.978;6.310;2023-06-10T14:18:30;32.40;53.00
54429;DHT22;40337;52.978;6.310;2023-06-10T14:20:56;32.20;54.20
54429;DHT22;40337;52.978;6.310;2023-06-10T14:23:22;32.30;55.10
54429;DHT22;40337;52.978;6.310;2023-06-10T14:25:47;32.00;53.80
54429;DHT22;40337;52.978;6.310;2023-06-10T14:28:13;32.10;54.70
54429;DHT22;40337;52.978;6.310;2023-06-10T14:30:38;32.00;55.10
54429;DHT22;40337;52.978;6.310;2023-06-10T14:33:04;32.10;54.40
54429;DHT22;40337;52.978;6.310;2023-06-10T14:35:31;32.20;54.40
54429;DHT22;40337;52.978;6.310;2023-06-10T14:37:56;32.00;54.20
54429;DHT22;40337;52.978;6.310;2023-06-10T14:40:22;32.10;54.80
54429;DHT22;40337;52.978;6.310;2023-06-10T14:42:49;32.20;55.20
54429;DHT22;40337;52.978;6.310;2023-06-10T14:45:15;32.20;54.90
54429;DHT22;40337;52.978;6.310;2023-06-10T14:47:40;32.10;54.90
54429;DHT22;40337;52.978;6.310;2023-06-10T14:50:06;32.00;54.60
54429;DHT22;40337;52.978;6.310;2023-06-10T14:52:32;32.00;54.00
54429;DHT22;40337;52.978;6.310;2023-06-10T14:54:58;31.80;53.50
54429;DHT22;40337;52.978;6.310;2023-06-10T14:57:23;31.90;54.90
54429;DHT22;40337;52.978;6.310;2023-06-10T14:59:49;31.60;55.30
54429;DHT22;40337;52.978;6.310;2023-06-10T15:02:14;31.60;54.60
54429;DHT22;40337;52.978;6.310;2023-06-10T15:04:40;31.70;55.00
54429;DHT22;40337;52.978;6.310;2023-06-10T15:07:05;31.60;55.10
54429;DHT22;40337;52.978;6.310;2023-06-10T15:09:31;31.50;53.30
54429;DHT22;40337;52.978;6.310;2023-06-10T15:11:57;31.50;54.10
54429;DHT22;40337;52.978;6.310;2023-06-10T15:14:24;31.30;54.00
54429;DHT22;40337;52.978;6.310;2023-06-10T15:16:51;31.30;53.90
54429;DHT22;40337;52.978;6.310;2023-06-10T15:19:16;31.30;53.50
54429;DHT22;40337;52.978;6.310;2023-06-10T15:21:42;31.30;53.30
54429;DHT22;40337;52.978;6.310;2023-06-10T15:24:08;31.30;53.60
54429;DHT22;40337;52.978;6.310;2023-06-10T15:26:33;31.20;53.10
54429;DHT22;40337;52.978;6.310;2023-06-10T15:29:00;31.20;52.80
54429;DHT22;40337;52.978;6.310;2023-06-10T15:31:30;31.10;53.00
54429;DHT22;40337;52.978;6.310;2023-06-10T15:33:57;31.00;52.80
54429;DHT22;40337;52.978;6.310;2023-06-10T15:36:23;30.90;53.70
54429;DHT22;40337;52.978;6.310;2023-06-10T15:38:48;30.90;54.30
54429;DHT22;40337;52.978;6.310;2023-06-10T15:41:14;30.90;55.10